ADDS METAR Data INFO
IDs: Format: Raw Decoded Include TAF

Data at: 1149 UTC 23 Jun 2018

KARR 231052Z 31004KT 9SM OVC043 16/15 A2974 RMK AO2 SLP070 T01610150
KARR 230952Z 32004KT 8SM FEW024 BKN031 OVC044 17/16 A2973 RMK AO2 SLP066 T01670156
KARR 230859Z 29005KT 7SM SCT030 OVC043 17/16 A2974 RMK AO2 T01670156
KARR 230852Z 29004KT 7SM BKN029 OVC043 17/16 A2974 RMK AO2 SLP068 T01670161 53007
KARR 230752Z 29004KT 7SM OVC028 17/16 A2973 RMK AO2 SLP065 T01670161
KARR 230652Z 05004KT 9SM OVC025 17/16 A2971 RMK AO2 SLP060 T01720161
KARR 230552Z 04006KT 9SM BKN024 OVC032 18/16 A2972 RMK AO2 SLP060 60000 T01780161 10178 20167 401780156 58005
KARR 230544Z 02005KT 9SM BKN024 OVC032 18/17 A2972 RMK AO2 T01780167
KARR 230535Z 03005KT 9SM SCT022 OVC032 18/17 A2972 RMK AO2 T01780167
KARR 230452Z 05004KT 8SM OVC019 17/17 A2973 RMK AO2 SLP067 T01720167
KARR 230352Z 03007KT 10SM OVC016 17/16 A2974 RMK AO2 SLP067 T01720161
KARR 230329Z 03007KT 10SM OVC016 17/16 A2973 RMK AO2 T01720161
KARR 230252Z 02008KT 10SM OVC011 17/16 A2973 RMK AO2 SLP066 60000 T01720161 53000
KARR 230218Z 03008KT 10SM OVC014 17/16 A2972 RMK AO2 T01720161
KARR 230152Z 03009KT 10SM OVC018 17/16 A2973 RMK AO2 SLP064 T01720156
KARR 230052Z 36005KT 7SM SCT022 BKN028 OVC042 17/16 A2973 RMK AO2 RAB23E33 SLP065 P0000 T01720161
KARR 230005Z 01009KT 4SM BR OVC018 17/16 A2973 RMK AO2 T01670156
KARR 222352Z 02009KT 5SM BR OVC014 17/16 A2973 RMK AO2 SLP066 60004 T01670156 10178 20161 56004
KARR 222252Z 01006KT 3SM BR OVC009 16/16 A2973 RMK AO2 RAB28E44 SLP066 P0004 T01610156
KARR 222248Z 01005KT 2 1/2SM BR BKN007 OVC012 16/16 A2973 RMK AO2 RAB28E44 P0004
KARR 222233Z 03008KT 1 3/4SM +RA BR FEW007 OVC011 16/16 A2974 RMK AO2 RAB28 P0004 T01610156
KARR 222152Z 04008KT 7SM OVC012 17/15 A2974 RMK AO2 SLP070 T01720150
KARR 222052Z 04010KT 6SM BR OVC010 17/16 A2974 RMK AO2 SLP069 T01720156 55000
KARR 221952Z 05010KT 7SM OVC009 17/16 A2974 RMK AO2 SLP069 T01720156
KARR 221852Z 05011KT 8SM OVC009 17/16 A2973 RMK AO2 SLP065 T01720156
KARR 221752Z 05015G21KT 9SM OVC008 17/16 A2974 RMK AO2 RAE15 SLP069 P0001 60050 T01720156 10178 20156 58010
KARR 221652Z 05013KT 3SM -RA BR OVC008 17/16 A2975 RMK AO2 CIG 006V011 SLP071 P0008 T01670156
KARR 221614Z 03012KT 3SM RA BR OVC008 16/16 A2977 RMK AO2 CIG 006V013 P0004 T01610156
KARR 221607Z 03010KT 2 1/2SM RA BR BKN008 OVC012 16/16 A2977 RMK AO2 CIG 006V010 P0003 T01610156
KARR 221603Z 03011KT 3SM RA BR OVC010 16/16 A2977 RMK AO2 CIG 006V012 P0002 T01610156
KARR 221552Z 03011KT 5SM -RA BR OVC008 16/16 A2977 RMK AO2 CIG 006V012 SLP079 P0009 T01610156
KARR 221452Z 03009KT 6SM -RA BR OVC008 16/15 A2977 RMK AO2 CIG 005V010 SLP079 P0007 60032 T01560150 51007
KARR 221352Z 05010G16KT 2 1/2SM RA BR BKN008 OVC030 16/15 A2976 RMK AO2 CIG 005V010 SLP077 P0013 T01560150
KARR 221339Z 05010G16KT 3SM RA BR BKN008 BKN021 OVC026 16/15 A2976 RMK AO2 P0010 T01610150
KARR 221327Z 05010G16KT 2 1/2SM RA BR BKN008 BKN021 OVC026 16/16 A2976 RMK AO2 P0007 T01610156
KARR 221252Z 05010G16KT 3SM -RA BR BKN008 BKN021 OVC026 16/16 A2975 RMK AO2 SLP073 P0012 T01610161
KARR 221245Z 05010G16KT 2SM RA BR BKN008 BKN021 OVC026 16/16 A2975 RMK AO2 P0011 T01610156
KARR 221223Z 05012G18KT 4SM -RA BR BKN008 OVC017 16/16 A2975 RMK AO2 CIG 006V011 P0007 T01610156
KARR 221210Z 05013KT 2 1/2SM RA BR OVC008 16/16 A2976 RMK AO2 CIG 006V010 P0005 T01610156
KARR 221152Z 05010KT 4SM RA BR OVC009 17/16 A2975 RMK AO2 RAE1054B27 CIG 007V012 SLP070 P0002 60035 70135 T01670156 10172 20167 53004
KARR 221116Z AUTO 05013KT 6SM BR OVC009 17/16 A2975 RMK AO2 RAE1054 CIG 007V013 P0000 T01670161
KARR 221052Z AUTO 05012KT 7SM -RA OVC010 17/16 A2974 RMK AO2 RAB20 CIG 007V014 SLP069 P0001 T01670161
KARR 221000Z AUTO 05013KT 7SM BKN011 OVC022 17/16 A2973 RMK AO2 T01720161
KARR 220952Z AUTO 05012KT 6SM BR BKN009 BKN013 OVC023 17/16 A2973 RMK AO2 CIG 006V010 SLP066 T01720161
KARR 220921Z AUTO 05013G20KT 4SM BR FEW007 BKN012 OVC024 17/17 A2973 RMK AO2 T01720167
KARR 220906Z AUTO 05013KT 4SM BR SCT009 SCT013 OVC024 17/17 A2974 RMK AO2 T01720167
KARR 220852Z AUTO 05013KT 5SM BR SCT011 OVC024 17/16 A2974 RMK AO2 RAE22 SLP066 P0001 60032 T01720161 56009
KARR 220827Z AUTO 05011KT 6SM BR SCT009 OVC024 17/17 A2973 RMK AO2 RAE22 P0001 T01720167
KARR 220808Z AUTO 05011KT 4SM -RA BR BKN009 OVC025 17/16 A2973 RMK AO2 CIG 006V014 P0000 T01720161
KARR 220752Z AUTO 05013KT 3SM -RA BR FEW008 SCT012 OVC025 17/16 A2974 RMK AO2 SLP066 P0001 T01720161
KARR 220652Z 05012KT 5SM -RA BR FEW014 BKN029 OVC055 17/17 A2974 RMK AO2 SLP069 P0030 T01720167
KARR 220625Z 04009KT 3SM RA BR FEW023 SCT030 OVC038 17/17 A2975 RMK AO2 P0026 T01720167
KARR 220607Z 04009KT 2SM +RA BR FEW021 BKN033 OVC041 17/17 A2976 RMK AO2 P0019 T01720167
KARR 220552Z 05009KT 1 1/2SM +RA BR BKN028 OVC039 17/16 A2976 RMK AO2 RAB23 SLP076 P0035 60036 T01720161 10194 20172 402060172 56006
KARR 220542Z 05010KT 1 3/4SM +RA BR FEW025 OVC030 17/16 A2976 RMK AO2 LTG DSNT E RAB23 P0018 T01720161
KARR 220539Z 05011KT 2SM +RA BR OVC028 17/16 A2977 RMK AO2 LTG DSNT E RAB23 P0011 T01720161
KARR 220452Z 05010KT 10SM OVC029 18/16 A2977 RMK AO2 SLP078 T01830156
KARR 220450Z 04011KT 10SM OVC029 18/16 A2977 RMK AO2
KARR 220416Z 07013KT 10SM OVC032 18/16 A2978 RMK AO2 LTG DSNT SE T01830156
KARR 220352Z 05012KT 9SM OVC026 18/16 A2978 RMK AO2 SLP082 T01830161
KARR 220252Z 06008KT 7SM OVC024 18/17 A2979 RMK AO2 RAB0158E21 SLP084 P0001 60001 T01830167 53009
KARR 220152Z 06012KT 7SM SCT011 OVC017 18/17 A2977 RMK AO2 SLP078 T01830172
KARR 220052Z 06010KT 4SM BR OVC012 19/18 A2977 RMK AO2 RAE15 SLP077 P0000 T01890178
KARR 220018Z 06011KT 3SM BR OVC010 19/18 A2976 RMK AO2 RAE15 P0000 T01890178
KARR 220001Z 05009KT 2 1/2SM -RA BR OVC010 19/18 A2976 RMK AO2 P0000 T01890178
KARR 212352Z 06011KT 2 1/2SM -RA BR OVC009 19/18 A2976 RMK AO2 SLP075 P0020 60022 T01890178 10206 20189 51001